Terminal Aerodrome Forecast
Issued by NWS Greer, SC

Home | Current Version | Previous Version | Text Only | Print | Product List | Glossary On
Versions: 1 2 3 4 5 6 7 8 9 10 11 12 13 14 15 16 17 18 19 20 21 22 23 24
000
FTUS42 KGSP 171130
TAFGSP
TAF
KGSP 171130Z 1712/1812 21006KT P6SM FEW250
     FM171500 23006KT P6SM FEW040
     FM171700 23008G16KT P6SM VCSH FEW050
     FM172200 22007KT P6SM SCT050 PROB30 1722/1801 4SM TSRA BKN050CB
     FM180200 VRB02KT P6SM SCT100=

USA.gov is the U.S. government's official web portal to all federal, state and local government web resources and services.